Stewart International Airport
KSWF : now visible

Airfield :











YOU CAN JOIN US ON...

 
LOGIN :

Register | Disclaimer

   EN    FR    IT 

 









Legend :    VFR   Marginal VFR   IFR   Intensive IFR   Very Intensive IFR
Visi :
Ceiling :
>= 8 km
>= 3000ft
5 to 8 km
1000 to 3000 ft
1500m to 5 km
500 to 1000 ft
800 to 1500m
200 to 500 ft
< 800m
< 200 ft
Symbols :   Thunderstorms  Fog  Heavy snow  Heavy precipitations  Wind > 20 kt






- Airport Elevation : 491 ft
- IATA code : SWF


KSWF - Stewart International

CURRENT METAR :
  • 060445Z 31012G19KT 10SM BKN055 01/M06 A3006

EXPIRED METARs :
  • 060345Z 31012G19KT 10SM BKN055 01/M06 A3003
  • 060245Z 31015G25KT 10SM BKN055 01/M06 A3001

TAF KSWF
Valid from the 06 at 02:00 until the 07 at 06:00 UTC


060203Z 0602/0706 29012G20KT P6SM BKN050
FM060400 29012KT P6SM SCT050
FM060700 27007KT P6SM SCT250
FM061000 27004KT P6SM BKN100
FM061500 24008KT P6SM OVC050
PROB30 0615/0618 -SN
FM061800 23011G19KT P6SM OVC040
PROB30 0618/0621 -RA
FM062100 27013G22KT P6SM SCT040
FM070000 31010G20KT P6SM FEW040
FM070400 31007KT P6SM FEW040 AMD NOT SKED



MET'MAP, your aeronautical weather chart ! - Copyright ORBIFLY December 2007 - Disclaimer

ORBIFLY MET'MAP TEAM :

Programming & Development : Alexandra Zaïnal
Concept & original design : Baudouin d'Aumeries
Assistance for programming : Marc-Olivier Méhu
Technical & hardware support : Manuel Goepfert

Contact : metmap@orbifly.com




SOURCES & CREDITS :

   NOAA       Earth
Advisory